Little Walnut Village, New Mexico
Current Conditions -  °F | °C
As of 11:35 AM on Monday 26 Jan 2015 (Local Time) from KSVC Reporting Station
Clear Clear  
Wind Chill: 55°   Ceiling: Unl
Heat Index: 55°   Visibility: 10mi
Dew Point: 19°   Wind: 6mph
Humidity: 25%   Direction: 140°SE
Pressure: 30.37"   Gusts: NA
Location:  33.0124°N, 108.286°W
Report Text: KSVC 261835Z AUTO 14005KT 10SM CLR 13/M07 A3037 RMK AO2
Loading
Personal Weather Stations






























Interactive Weather Map New forecast layout! Learn more

10-Day Weather Forecast

Advertisements
Track Severe Weather on mobile